»·PEaware :: N6182G KBUR-KNFG

N6182G :: KBUR-KNFG

FLIGHT INFORMATION

Flight Status: Arrived
Operator: Privately registered:
United States
More flights under this callsign
Pilot: Paul A. (20189)
Aircraft: CESSNA 182 SKYLANE
(C182)
More flights by this aircraft type
Origin: KBUR Bob Hope-Burbank
United States
Destination: KNFG Camp Pendleton MCAS
United States
More flights between these airports :: More routes between these airports
Route: +ELMOO8 ELMOO V186 ROBNN V458 OCN
File this flight plan on PilotEdge
Remarks:
Altitude:
(Current/Filed)
7,000ft
Speed:
(Current/Filed)
120kts
Departed: 25-Sep-18 06:55 PM
Arrived: 25-Sep-18 07:44 PM
Distance/Time
Traveled:
74nm/0:49
Distance/Time
To Go:
Arrived

Flight Plot

Page will automatically refresh every two minutes.

Flight plan parsing failed; only flown route is shown


Map Options




Map Legend


Flown Route
Filed Route
Departure Airport
Arrival Airport
Navaid (VOR, NDB)
Fix

Horizontal Profiles

Position Reports

Time Latitude Longitude Heading Altitude Ground
Speed
25-Sep-18 18:30 34.195997 -118.360231 160 724ft 0kts
25-Sep-18 18:31 34.195996 -118.360230 160 724ft 0kts
25-Sep-18 18:32 34.195995 -118.360230 160 724ft 0kts
25-Sep-18 18:33 34.195994 -118.360230 160 724ft 0kts
25-Sep-18 18:34 34.195993 -118.360229 160 724ft 0kts
25-Sep-18 18:35 34.195992 -118.360229 160 724ft 0kts
25-Sep-18 18:36 34.195991 -118.360228 160 724ft 0kts
25-Sep-18 18:37 34.195990 -118.360228 160 724ft 0kts
25-Sep-18 18:38 34.195989 -118.360227 160 724ft 0kts
25-Sep-18 18:39 34.195988 -118.360227 160 724ft 0kts
25-Sep-18 18:40 34.195987 -118.360227 160 724ft 0kts
25-Sep-18 18:41 34.195986 -118.360226 160 724ft 0kts
25-Sep-18 18:42 34.195985 -118.360226 160 724ft 0kts
25-Sep-18 18:43 34.195984 -118.360225 160 724ft 0kts
25-Sep-18 18:44 34.195983 -118.360225 160 724ft 0kts
25-Sep-18 18:45 34.195982 -118.360225 160 724ft 0kts
25-Sep-18 18:46 34.195981 -118.360224 160 724ft 0kts
25-Sep-18 18:47 34.195980 -118.360224 160 724ft 0kts
25-Sep-18 18:48 34.195979 -118.360223 160 724ft 0kts
25-Sep-18 18:49 34.195978 -118.360223 160 724ft 0kts
25-Sep-18 18:50 34.195978 -118.360223 160 724ft 0kts
25-Sep-18 18:51 34.195977 -118.360222 160 724ft 0kts
25-Sep-18 18:52 34.195912 -118.360378 314 724ft 7kts
25-Sep-18 18:53 34.196827 -118.361350 269 724ft 7kts
25-Sep-18 18:54 34.196883 -118.364769 270 724ft 11kts
25-Sep-18 18:55 34.196947 -118.368881 298 724ft 8kts
25-Sep-18 18:56 34.197540 -118.369029 357 724ft 8kts
25-Sep-18 18:57 34.197914 -118.361542 89 830ft 70kts
25-Sep-18 18:58 34.191301 -118.337139 134 1827ft 84kts
25-Sep-18 18:59 34.176507 -118.313362 136 2822ft 92kts
25-Sep-18 19:00 34.158683 -118.291111 136 3813ft 90kts
25-Sep-18 19:01 34.153429 -118.262358 111 4698ft 93kts
25-Sep-18 19:02 34.143171 -118.228992 109 5009ft 124kts
25-Sep-18 19:03 34.131009 -118.188519 109 5008ft 129kts
25-Sep-18 19:04 34.118605 -118.147446 109 5007ft 130kts
25-Sep-18 19:05 34.106535 -118.107522 110 5005ft 130kts
25-Sep-18 19:06 34.094408 -118.066447 107 5003ft 130kts
25-Sep-18 19:07 34.083211 -118.024922 110 5001ft 130kts
25-Sep-18 19:08 34.070216 -117.984932 111 4991ft 126kts
25-Sep-18 19:09 34.057600 -117.945461 111 4998ft 130kts
25-Sep-18 19:10 34.043576 -117.901743 111 5016ft 143kts
25-Sep-18 19:11 34.028913 -117.856648 112 5019ft 144kts
25-Sep-18 19:12 34.013728 -117.811815 112 5019ft 144kts
25-Sep-18 19:13 33.998538 -117.766806 112 5024ft 144kts
25-Sep-18 19:14 33.983412 -117.722025 112 5029ft 144kts
25-Sep-18 19:15 33.968199 -117.677037 112 5028ft 144kts
25-Sep-18 19:16 33.953005 -117.632172 111 5030ft 144kts
25-Sep-18 19:17 33.937810 -117.587365 111 5028ft 144kts
25-Sep-18 19:18 33.922571 -117.542505 111 5025ft 144kts
25-Sep-18 19:19 33.895234 -117.509964 145 5336ft 132kts
25-Sep-18 19:20 33.866062 -117.485932 143 6029ft 124kts
25-Sep-18 19:21 33.838102 -117.462542 143 6722ft 120kts
25-Sep-18 19:22 33.809185 -117.438309 143 7029ft 138kts
25-Sep-18 19:23 33.777066 -117.411557 143 7020ft 141kts
25-Sep-18 19:24 33.744928 -117.384703 143 7019ft 140kts
25-Sep-18 19:25 33.712797 -117.357864 143 7019ft 140kts
25-Sep-18 19:26 33.680581 -117.330979 143 7019ft 141kts
25-Sep-18 19:27 33.648390 -117.304166 143 7019ft 141kts
25-Sep-18 19:28 33.616102 -117.277246 143 7019ft 141kts
25-Sep-18 19:29 33.583873 -117.250406 143 7007ft 142kts
25-Sep-18 19:30 33.551481 -117.223489 143 6992ft 141kts
25-Sep-18 19:31 33.519087 -117.196584 143 6987ft 141kts
25-Sep-18 19:32 33.486830 -117.169881 146 6987ft 141kts
25-Sep-18 19:33 33.447337 -117.175769 192 6546ft 150kts
25-Sep-18 19:34 33.412123 -117.186286 192 5487ft 124kts
25-Sep-18 19:35 33.378665 -117.195694 192 4484ft 123kts
25-Sep-18 19:36 33.345001 -117.204530 192 3996ft 128kts
25-Sep-18 19:37 33.322360 -117.231136 242 3995ft 123kts
25-Sep-18 19:38 33.306316 -117.266860 242 3967ft 110kts
25-Sep-18 19:39 33.291570 -117.298921 244 3873ft 121kts
25-Sep-18 19:40 33.270598 -117.330278 232 3221ft 119kts
25-Sep-18 19:41 33.253319 -117.360112 246 2457ft 108kts
25-Sep-18 19:42 33.248863 -117.390547 278 1812ft 81kts
25-Sep-18 19:43 33.265077 -117.398907 46 1479ft 100kts
25-Sep-18 19:44 33.283438 -117.376432 41 553ft 89kts
25-Sep-18 19:45 33.299148 -117.357737 43 81ft 54kts
25-Sep-18 19:46 33.300750 -117.354802 143 81ft 1kts
25-Sep-18 19:47 33.300731 -117.354785 143 81ft 2kts
25-Sep-18 19:48 33.299586 -117.353819 133 81ft 3kts
25-Sep-18 19:49 33.298455 -117.352365 127 81ft 0kts

Navigation Log

Ident Type
Flight plan parsing failed, navigation log unavailable